createdAt,value
2019-02-05T00:00:45.974Z,17.73
2019-02-05T00:03:21.356Z,11.47
2019-02-05T00:05:53.770Z,9.33
2019-02-05T00:08:25.299Z,13.83
2019-02-05T00:10:57.297Z,10.40
2019-02-05T00:13:28.812Z,11.70
2019-02-05T00:16:00.386Z,12.20
2019-02-05T00:18:32.136Z,9.07
2019-02-05T00:21:03.682Z,12.70
2019-02-05T00:23:35.832Z,10.10
2019-02-05T00:26:07.325Z,12.23
2019-02-05T00:28:38.853Z,11.80
2019-02-05T00:31:10.476Z,10.93
2019-02-05T00:33:42.200Z,11.60
2019-02-05T00:36:14.033Z,10.73
2019-02-05T00:38:45.684Z,11.60
2019-02-05T00:41:17.198Z,13.17
2019-02-05T00:43:48.745Z,11.70
2019-02-05T00:46:20.315Z,12.83
2019-02-05T00:48:52.430Z,14.37
2019-02-05T00:51:23.985Z,7.73
2019-02-05T00:53:55.497Z,13.13
2019-02-05T00:56:27.096Z,8.40
2019-02-05T00:58:58.583Z,10.20
2019-02-05T01:01:30.423Z,10.33
2019-02-05T01:04:02.219Z,10.80
2019-02-05T01:06:33.773Z,11.63
2019-02-05T01:09:07.536Z,9.93
2019-02-05T01:11:39.536Z,11.10
2019-02-05T01:14:12.881Z,13.63
2019-02-05T01:16:44.378Z,11.97
2019-02-05T01:19:16.328Z,13.97
2019-02-05T01:21:47.794Z,12.60
2019-02-05T01:24:20.447Z,13.10
2019-02-05T01:26:51.923Z,13.37
2019-02-05T01:29:23.398Z,12.97
2019-02-05T01:31:54.971Z,13.77
2019-02-05T01:34:26.584Z,13.53
2019-02-05T01:36:58.282Z,9.13
2019-02-05T01:39:29.748Z,12.80
2019-02-05T01:42:01.262Z,11.63
2019-02-05T01:44:32.687Z,11.20
2019-02-05T01:47:04.203Z,8.40
2019-02-05T01:49:36.532Z,10.33
2019-02-05T01:52:08.014Z,10.53
2019-02-05T01:54:39.535Z,13.47
2019-02-05T01:57:10.988Z,11.20
2019-02-05T01:59:42.687Z,9.87
2019-02-05T02:02:14.391Z,9.47
2019-02-05T02:04:45.941Z,7.67
2019-02-05T02:07:17.386Z,8.93
2019-02-05T02:09:48.827Z,8.80
2019-02-05T02:12:20.476Z,12.50
2019-02-05T02:14:51.960Z,10.90
2019-02-05T02:17:23.396Z,11.90
2019-02-05T02:19:55.108Z,9.83
2019-02-05T02:22:26.576Z,10.23
2019-02-05T02:24:58.399Z,13.20
2019-02-05T02:27:29.835Z,9.73
2019-02-05T02:30:02.453Z,10.37
2019-02-05T02:32:33.950Z,11.13
2019-02-05T02:35:05.458Z,10.77
2019-02-05T02:37:36.909Z,11.90
2019-02-05T02:40:09.098Z,13.63
2019-02-05T02:42:40.641Z,13.80
2019-02-05T02:45:13.342Z,14.13
2019-02-05T02:47:44.811Z,11.40
2019-02-05T02:50:17.868Z,13.83
2019-02-05T02:52:49.885Z,15.73
2019-02-05T02:55:21.417Z,13.63
2019-02-05T02:57:52.996Z,14.30
2019-02-05T03:00:24.541Z,14.47
2019-02-05T03:02:55.999Z,15.70
2019-02-05T03:05:27.815Z,12.70
2019-02-05T03:07:59.270Z,13.37
2019-02-05T03:10:32.113Z,16.70
2019-02-05T03:13:03.623Z,16.77
2019-02-05T03:15:35.424Z,16.17
2019-02-05T03:18:06.960Z,14.70
2019-02-05T03:20:38.913Z,14.43
2019-02-05T03:23:10.354Z,17.57
2019-02-05T03:25:41.904Z,15.47
2019-02-05T03:28:13.353Z,19.17
2019-02-05T03:30:44.879Z,16.33
2019-02-05T03:33:16.344Z,21.73
2019-02-05T03:35:48.136Z,16.90
2019-02-05T03:38:19.642Z,17.33
2019-02-05T03:41:10.609Z,19.77
2019-02-05T03:43:42.789Z,16.87
2019-02-05T03:46:17.972Z,20.93
2019-02-05T03:48:50.290Z,19.10
2019-02-05T03:51:47.115Z,18.77
2019-02-05T03:55:12.190Z,14.40
2019-02-05T03:58:52.403Z,14.43
2019-02-05T04:02:28.009Z,13.53
2019-02-05T04:05:33.404Z,19.60
2019-02-05T04:09:08.808Z,18.23
2019-02-05T04:12:44.427Z,21.63
2019-02-05T04:16:04.550Z,17.10
2019-02-05T04:19:20.208Z,18.17
2019-02-05T04:22:41.103Z,17.13
2019-02-05T04:26:14.384Z,17.77
2019-02-05T04:29:29.904Z,18.27
2019-02-05T04:32:52.377Z,11.33
2019-02-05T04:36:32.441Z,15.87
2019-02-05T04:40:32.147Z,16.73
2019-02-05T04:44:07.410Z,15.83
2019-02-05T04:47:19.042Z,16.47
2019-02-05T04:50:16.159Z,13.10
2019-02-05T04:53:32.846Z,13.60
2019-02-05T04:57:07.562Z,13.37
2019-02-05T05:00:29.646Z,13.03
2019-02-05T05:03:59.115Z,14.00
2019-02-05T05:06:58.513Z,11.53
2019-02-05T05:09:58.604Z,12.43
2019-02-05T05:12:31.091Z,11.70
2019-02-05T05:15:02.818Z,13.03
2019-02-05T05:17:34.370Z,10.60
2019-02-05T05:20:09.014Z,10.60
2019-02-05T05:22:40.457Z,12.17
2019-02-05T05:25:13.800Z,11.90
2019-02-05T05:27:45.868Z,11.60
2019-02-05T05:30:19.625Z,12.47
2019-02-05T05:32:51.560Z,11.97
2019-02-05T05:35:23.009Z,12.87
2019-02-05T05:37:54.735Z,13.97
2019-02-05T05:40:26.227Z,11.50
2019-02-05T05:42:57.832Z,11.87
2019-02-05T05:45:29.658Z,8.77
2019-02-05T05:48:01.267Z,10.50
2019-02-05T05:50:33.114Z,9.80
2019-02-05T05:53:05.244Z,9.47
2019-02-05T05:55:36.769Z,9.97
2019-02-05T05:58:08.353Z,9.80
2019-02-05T06:00:39.854Z,10.80
2019-02-05T06:03:11.342Z,10.87
2019-02-05T06:05:42.888Z,13.33
2019-02-05T06:08:14.575Z,13.90
2019-02-05T06:10:46.114Z,10.77
2019-02-05T06:13:17.792Z,11.00
2019-02-05T06:15:49.256Z,8.93
2019-02-05T06:18:21.141Z,10.67
2019-02-05T06:20:52.601Z,10.50
2019-02-05T06:23:24.035Z,11.23
2019-02-05T06:25:55.476Z,10.17
2019-02-05T06:28:34.779Z,11.07
2019-02-05T06:31:00.762Z,10.17
2019-02-05T06:33:32.230Z,10.00
2019-02-05T06:36:03.781Z,9.33
2019-02-05T06:38:35.207Z,10.30
2019-02-05T06:41:06.648Z,8.77
2019-02-05T06:43:38.591Z,8.90
2019-02-05T06:46:10.147Z,12.40
2019-02-05T06:48:41.630Z,27.10
2019-02-05T06:51:13.135Z,24.17
2019-02-05T06:53:44.645Z,15.30
2019-02-05T06:56:16.163Z,11.97
2019-02-05T06:58:47.865Z,11.40
2019-02-05T07:01:19.348Z,10.53
2019-02-05T07:03:50.842Z,10.40
2019-02-05T07:06:22.284Z,11.17
2019-02-05T07:08:53.739Z,10.60
2019-02-05T07:11:25.583Z,11.80
2019-02-05T07:13:58.228Z,10.73
2019-02-05T07:16:29.948Z,7.50
2019-02-05T07:19:01.477Z,11.10
2019-02-05T07:21:32.943Z,12.53
2019-02-05T07:24:04.890Z,10.67
2019-02-05T07:26:36.349Z,10.70
2019-02-05T07:29:08.648Z,10.30
2019-02-05T07:31:40.156Z,11.73
2019-02-05T07:34:11.884Z,12.53
2019-02-05T07:36:43.543Z,13.10
2019-02-05T07:39:14.998Z,13.37
2019-02-05T07:41:46.444Z,12.00
2019-02-05T07:44:17.936Z,8.33
2019-02-05T07:46:49.582Z,11.30
2019-02-05T07:49:21.112Z,10.40
2019-02-05T07:51:52.598Z,9.20
2019-02-05T07:54:24.138Z,9.97
2019-02-05T07:56:55.716Z,8.87
2019-02-05T07:59:27.571Z,9.97
2019-02-05T08:01:59.059Z,9.83
2019-02-05T08:04:30.577Z,9.40
2019-02-05T08:07:02.323Z,9.33
2019-02-05T08:09:33.850Z,9.37
2019-02-05T08:12:05.328Z,9.17
2019-02-05T08:14:38.438Z,8.87
2019-02-05T08:17:10.016Z,7.97
2019-02-05T08:19:41.763Z,8.83
2019-02-05T08:22:13.700Z,11.13
2019-02-05T08:24:45.287Z,9.43
2019-02-05T08:27:16.732Z,9.20
2019-02-05T08:29:48.572Z,11.47
2019-02-05T08:32:20.125Z,12.57
2019-02-05T08:34:51.591Z,11.63
2019-02-05T08:37:23.286Z,10.53
2019-02-05T08:39:54.834Z,9.67
2019-02-05T08:42:26.315Z,10.53
2019-02-05T08:44:57.779Z,13.17
2019-02-05T08:47:29.352Z,15.17
2019-02-05T08:50:01.091Z,14.77
2019-02-05T08:52:32.836Z,13.83
2019-02-05T08:55:04.421Z,12.37
2019-02-05T08:57:35.978Z,10.10
2019-02-05T09:00:12.379Z,9.80
2019-02-05T09:02:44.070Z,8.40
2019-02-05T09:05:16.000Z,9.10
2019-02-05T09:07:47.550Z,8.80
2019-02-05T09:10:31.422Z,9.00
2019-02-05T09:13:03.097Z,8.83
2019-02-05T09:15:35.263Z,10.13
2019-02-05T09:18:07.181Z,9.80
2019-02-05T09:20:38.729Z,9.37
2019-02-05T09:23:10.380Z,10.47
2019-02-05T09:25:41.990Z,9.87
2019-02-05T09:28:15.111Z,12.30
2019-02-05T09:30:46.952Z,11.30
2019-02-05T09:33:18.431Z,10.37
2019-02-05T09:35:49.938Z,9.93
2019-02-05T09:38:21.650Z,10.07
2019-02-05T09:40:53.170Z,11.70
2019-02-05T09:43:24.622Z,12.80
2019-02-05T09:45:56.448Z,12.03
2019-02-05T09:48:28.244Z,10.83
2019-02-05T09:50:59.755Z,11.50
2019-02-05T09:53:31.292Z,13.60
2019-02-05T09:56:03.694Z,15.70
2019-02-05T09:58:35.188Z,9.53
2019-02-05T10:01:07.078Z,13.20
2019-02-05T10:03:38.690Z,10.93
2019-02-05T10:06:10.128Z,12.03
2019-02-05T10:08:41.640Z,11.53
2019-02-05T10:11:13.100Z,11.90
2019-02-05T10:13:44.562Z,11.83
2019-02-05T10:16:16.044Z,11.00
2019-02-05T10:18:47.621Z,11.20
2019-02-05T10:21:19.124Z,11.50
2019-02-05T10:23:51.113Z,11.20
2019-02-05T10:26:22.717Z,11.43
2019-02-05T10:28:54.263Z,12.37
2019-02-05T10:31:26.325Z,13.00
2019-02-05T10:33:58.086Z,13.57
2019-02-05T10:36:30.060Z,11.63
2019-02-05T10:39:01.689Z,14.87
2019-02-05T10:41:34.799Z,15.83
2019-02-05T10:44:06.483Z,15.00
2019-02-05T10:46:38.259Z,14.93
2019-02-05T10:49:10.248Z,15.53
2019-02-05T10:51:41.761Z,15.40
2019-02-05T10:54:13.334Z,16.27
2019-02-05T10:56:44.896Z,16.27
2019-02-05T10:59:16.434Z,14.60
2019-02-05T11:01:48.348Z,14.10
2019-02-05T11:04:20.052Z,12.47
2019-02-05T11:06:51.539Z,12.77
2019-02-05T11:09:23.088Z,12.40
2019-02-05T11:11:54.901Z,15.97
2019-02-05T11:14:26.492Z,12.67
2019-02-05T11:16:58.216Z,11.97
2019-02-05T11:19:29.807Z,12.60
2019-02-05T11:22:01.295Z,13.53
2019-02-05T11:24:32.881Z,12.90
2019-02-05T11:27:04.351Z,12.10
2019-02-05T11:29:35.981Z,12.97
2019-02-05T11:32:08.185Z,13.67
2019-02-05T11:34:39.655Z,12.53
2019-02-05T11:37:11.236Z,11.77
2019-02-05T11:39:42.720Z,14.27
2019-02-05T11:42:14.192Z,13.07
2019-02-05T11:44:45.747Z,15.63
2019-02-05T11:47:17.259Z,10.60
2019-02-05T11:49:49.087Z,13.37
2019-02-05T11:52:20.717Z,11.23
2019-02-05T11:54:52.919Z,7.37
2019-02-05T11:57:25.361Z,12.03
2019-02-05T11:59:57.362Z,11.17
2019-02-05T12:02:28.972Z,15.60
2019-02-05T12:05:00.659Z,13.70
2019-02-05T12:07:32.174Z,13.10
2019-02-05T12:10:03.974Z,12.00
2019-02-05T12:12:35.919Z,13.10
2019-02-05T12:15:09.839Z,11.37
2019-02-05T12:17:41.586Z,11.70
2019-02-05T12:20:14.740Z,13.13
2019-02-05T12:22:46.263Z,12.03
2019-02-05T12:25:18.567Z,12.40
2019-02-05T12:27:50.197Z,12.47
2019-02-05T12:30:26.414Z,10.90
2019-02-05T12:32:57.950Z,11.30
2019-02-05T12:35:29.548Z,11.17
2019-02-05T12:38:01.014Z,11.27
2019-02-05T12:40:32.874Z,6.83
2019-02-05T12:43:04.424Z,11.20
2019-02-05T12:45:36.163Z,12.63
2019-02-05T12:48:07.819Z,13.10
2019-02-05T12:50:39.793Z,9.97
2019-02-05T12:53:11.296Z,8.73
2019-02-05T12:55:42.914Z,12.57
2019-02-05T12:58:14.397Z,11.20
2019-02-05T13:00:58.233Z,10.83
2019-02-05T13:03:25.776Z,11.10
2019-02-05T13:05:57.543Z,9.37
2019-02-05T13:08:29.088Z,10.70
2019-02-05T13:11:01.045Z,12.37
2019-02-05T13:13:32.753Z,9.77
2019-02-05T13:16:04.670Z,14.20
2019-02-05T13:18:37.324Z,12.07
2019-02-05T13:21:08.237Z,12.30
2019-02-05T13:23:39.785Z,13.80
2019-02-05T13:26:11.280Z,13.17
2019-02-05T13:28:43.056Z,32.23
2019-02-05T13:31:14.907Z,47.20
2019-02-05T13:33:46.761Z,42.03
2019-02-05T13:36:18.540Z,30.93
2019-02-05T13:38:50.049Z,30.87
2019-02-05T13:41:21.923Z,18.53
2019-02-05T13:43:53.432Z,24.30
2019-02-05T13:46:25.259Z,71.53
2019-02-05T13:48:57.094Z,159.93
2019-02-05T13:51:28.601Z,92.43
2019-02-05T13:54:00.288Z,25.10
2019-02-05T13:56:32.189Z,18.63
2019-02-05T13:59:03.758Z,15.23
2019-02-05T14:01:35.376Z,18.63
2019-02-05T14:04:06.936Z,19.33
2019-02-05T14:06:38.918Z,21.03
2019-02-05T14:09:13.923Z,18.10
2019-02-05T14:11:45.509Z,14.07
2019-02-05T14:14:17.066Z,16.07
2019-02-05T14:16:49.552Z,20.20
2019-02-05T14:19:21.423Z,16.50
2019-02-05T14:21:53.159Z,14.60
2019-02-05T14:24:24.652Z,12.67
2019-02-05T14:26:56.287Z,12.60
2019-02-05T14:29:27.771Z,14.27
2019-02-05T14:31:59.874Z,11.00
2019-02-05T14:34:31.534Z,16.00
2019-02-05T14:37:03.309Z,14.83
2019-02-05T14:39:35.101Z,14.83
2019-02-05T14:42:07.757Z,15.17
2019-02-05T14:44:39.372Z,13.43
2019-02-05T14:47:11.286Z,15.27
2019-02-05T14:49:42.712Z,14.60
2019-02-05T14:52:14.290Z,10.87
2019-02-05T14:54:45.928Z,14.00
2019-02-05T14:57:17.798Z,15.47
2019-02-05T14:59:49.426Z,15.17
2019-02-05T15:02:20.970Z,14.13
2019-02-05T15:04:52.807Z,12.40
2019-02-05T15:07:24.511Z,14.63
2019-02-05T15:09:56.150Z,10.73
2019-02-05T15:12:27.754Z,15.77
2019-02-05T15:14:59.228Z,9.30
2019-02-05T15:17:30.763Z,10.30
2019-02-05T15:20:02.710Z,12.83
2019-02-05T15:22:35.439Z,15.97
2019-02-05T15:25:08.674Z,17.50
2019-02-05T15:27:40.386Z,20.27
2019-02-05T15:30:17.610Z,25.37
2019-02-05T15:33:00.436Z,22.90
2019-02-05T15:35:32.344Z,17.77
2019-02-05T15:38:04.260Z,14.37
2019-02-05T15:40:36.196Z,15.50
2019-02-05T15:43:08.691Z,12.37
2019-02-05T15:45:40.209Z,16.83
2019-02-05T15:48:12.095Z,18.43
2019-02-05T15:50:43.804Z,16.37
2019-02-05T15:53:15.816Z,14.83
2019-02-05T15:55:48.426Z,16.20
2019-02-05T15:58:20.248Z,12.47
2019-02-05T16:00:51.839Z,19.07
2019-02-05T16:03:23.532Z,19.17
2019-02-05T16:05:55.309Z,20.23
2019-02-05T16:08:27.768Z,15.60
2019-02-05T16:10:59.349Z,19.33
2019-02-05T16:13:31.130Z,15.37
2019-02-05T16:16:02.823Z,15.63
2019-02-05T16:18:34.748Z,18.47
2019-02-05T16:21:06.754Z,20.20
2019-02-05T16:23:38.625Z,15.37
2019-02-05T16:26:10.078Z,17.33
2019-02-05T16:28:41.614Z,17.50
2019-02-05T16:31:13.103Z,18.10
2019-02-05T16:33:45.249Z,17.90
2019-02-05T16:36:16.899Z,18.60
2019-02-05T16:38:48.525Z,19.40
2019-02-05T16:41:20.016Z,18.13
2019-02-05T16:43:51.693Z,18.57
2019-02-05T16:46:23.682Z,21.87
2019-02-05T16:48:55.496Z,16.37
2019-02-05T16:51:26.998Z,20.10
2019-02-05T16:53:58.476Z,19.23
2019-02-05T16:56:30.222Z,21.73
2019-02-05T16:59:02.717Z,20.43
2019-02-05T17:01:34.353Z,20.57
2019-02-05T17:04:06.135Z,20.30
2019-02-05T17:06:38.028Z,22.40
2019-02-05T17:09:16.952Z,21.87
2019-02-05T17:11:48.559Z,24.87
2019-02-05T17:14:20.356Z,23.83
2019-02-05T17:16:51.867Z,24.43
2019-02-05T17:19:23.486Z,24.40
2019-02-05T17:21:55.508Z,24.00
2019-02-05T17:24:27.395Z,23.80
2019-02-05T17:26:58.964Z,25.30
2019-02-05T17:29:30.796Z,21.53
2019-02-05T17:32:02.381Z,21.07
2019-02-05T17:34:34.113Z,22.80
2019-02-05T17:37:05.858Z,25.67
2019-02-05T17:39:37.574Z,25.57
2019-02-05T17:42:09.226Z,21.33
2019-02-05T17:44:40.721Z,26.10
2019-02-05T17:47:12.255Z,21.63
2019-02-05T17:49:43.831Z,28.17
2019-02-05T17:52:16.158Z,24.87
2019-02-05T17:54:47.756Z,26.37
2019-02-05T17:57:19.336Z,27.30
2019-02-05T17:59:51.175Z,29.60
2019-02-05T18:02:22.668Z,22.97
2019-02-05T18:04:54.597Z,23.00
2019-02-05T18:07:26.442Z,14.70
2019-02-05T18:09:59.440Z,24.07
2019-02-05T18:12:30.968Z,26.73
2019-02-05T18:15:02.801Z,29.07
2019-02-05T18:17:34.898Z,29.73
2019-02-05T18:20:08.796Z,35.47
2019-02-05T18:22:40.699Z,41.03
2019-02-05T18:25:15.987Z,29.33
2019-02-05T18:27:48.296Z,30.67
2019-02-05T18:30:27.358Z,30.47
2019-02-05T18:33:04.909Z,30.87
2019-02-05T18:35:34.798Z,27.90
2019-02-05T18:38:08.635Z,29.40
2019-02-05T18:40:42.279Z,25.00
2019-02-05T18:43:14.760Z,28.43
2019-02-05T18:45:46.634Z,27.73
2019-02-05T18:48:18.244Z,24.40
2019-02-05T18:50:50.330Z,27.57
2019-02-05T18:53:22.066Z,27.60
2019-02-05T18:55:54.509Z,24.20
2019-02-05T18:58:27.010Z,29.70
2019-02-05T19:00:59.438Z,29.13
2019-02-05T19:03:31.297Z,29.83
2019-02-05T19:06:03.332Z,23.97
2019-02-05T19:08:35.658Z,30.03
2019-02-05T19:11:07.553Z,29.80
2019-02-05T19:13:39.150Z,27.17
2019-02-05T19:16:12.104Z,26.40
2019-02-05T19:18:44.013Z,24.23
2019-02-05T19:21:15.831Z,28.90
2019-02-05T19:23:49.649Z,32.30
2019-02-05T19:26:28.581Z,19.20
2019-02-05T19:29:00.340Z,31.03
2019-02-05T19:31:34.572Z,33.63
2019-02-05T19:34:09.384Z,34.73
2019-02-05T19:36:41.244Z,37.83
2019-02-05T19:39:13.164Z,27.90
2019-02-05T19:41:45.144Z,16.37
2019-02-05T19:44:16.816Z,33.10
2019-02-05T19:46:54.011Z,36.17
2019-02-05T19:49:48.077Z,31.97
2019-02-05T19:52:20.067Z,29.30
2019-02-05T19:54:52.182Z,33.83
2019-02-05T19:57:24.208Z,29.33
2019-02-05T19:59:56.261Z,39.87
2019-02-05T20:02:28.406Z,28.30
2019-02-05T20:05:00.218Z,40.27
2019-02-05T20:07:32.216Z,33.93
2019-02-05T20:10:04.605Z,27.53
2019-02-05T20:12:36.627Z,31.23
2019-02-05T20:15:09.673Z,32.27
2019-02-05T20:17:41.727Z,31.33
2019-02-05T20:20:15.443Z,38.37
2019-02-05T20:22:47.763Z,29.33
2019-02-05T20:25:19.954Z,31.43
2019-02-05T20:27:52.121Z,20.20
2019-02-05T20:30:24.482Z,37.57
2019-02-05T20:32:57.037Z,34.03
2019-02-05T20:35:28.912Z,36.77
2019-02-05T20:38:01.095Z,35.97
2019-02-05T20:40:32.726Z,36.30
2019-02-05T20:43:04.757Z,35.47
2019-02-05T20:45:36.404Z,34.03
2019-02-05T20:48:08.372Z,34.40
2019-02-05T20:50:40.569Z,32.83
2019-02-05T20:53:14.301Z,25.27
2019-02-05T20:55:47.531Z,30.83
2019-02-05T20:58:19.718Z,35.43
2019-02-05T21:00:51.351Z,35.43
2019-02-05T21:03:24.042Z,30.00
2019-02-05T21:05:56.024Z,34.43
2019-02-05T21:08:27.980Z,32.13
2019-02-05T21:11:00.197Z,34.80
2019-02-05T21:13:32.122Z,36.33
2019-02-05T21:16:04.421Z,34.23
2019-02-05T21:18:36.661Z,31.70
2019-02-05T21:21:08.754Z,35.50
2019-02-05T21:23:40.854Z,31.90
2019-02-05T21:26:12.649Z,38.33
2019-02-05T21:28:44.846Z,35.00
2019-02-05T21:31:16.646Z,35.90
2019-02-05T21:33:48.430Z,35.07
2019-02-05T21:36:20.134Z,34.53
2019-02-05T21:38:52.075Z,33.17
2019-02-05T21:41:24.006Z,32.80
2019-02-05T21:43:55.888Z,34.50
2019-02-05T21:46:27.540Z,35.80
2019-02-05T21:48:59.300Z,39.13
2019-02-05T21:51:40.091Z,30.13
2019-02-05T21:54:04.659Z,34.00
2019-02-05T21:56:36.478Z,34.23
2019-02-05T21:59:08.405Z,29.87
2019-02-05T22:01:40.295Z,23.43
2019-02-05T22:04:12.115Z,35.37
2019-02-05T22:06:43.736Z,34.30
2019-02-05T22:09:15.962Z,36.53
2019-02-05T22:11:47.880Z,33.40
2019-02-05T22:14:19.673Z,30.30
2019-02-05T22:16:51.160Z,31.27
2019-02-05T22:19:23.363Z,30.23
2019-02-05T22:21:55.083Z,28.33
2019-02-05T22:24:26.773Z,31.80
2019-02-05T22:26:58.905Z,27.13
2019-02-05T22:29:30.842Z,32.13
2019-02-05T22:32:03.427Z,30.37
2019-02-05T22:34:39.336Z,27.77
2019-02-05T22:37:08.408Z,29.37
2019-02-05T22:39:40.617Z,23.80
2019-02-05T22:42:12.438Z,29.53
2019-02-05T22:44:44.751Z,26.20
2019-02-05T22:47:16.385Z,27.77
2019-02-05T22:49:48.259Z,26.77
2019-02-05T22:52:19.803Z,28.07
2019-02-05T22:54:51.413Z,29.20
2019-02-05T22:57:23.241Z,27.20
2019-02-05T22:59:54.750Z,29.60
2019-02-05T23:02:26.295Z,26.90
2019-02-05T23:05:39.579Z,26.40
2019-02-05T23:08:11.208Z,26.93
2019-02-05T23:11:26.107Z,27.23
2019-02-05T23:13:57.640Z,29.07
2019-02-05T23:16:29.284Z,23.73
2019-02-05T23:19:00.813Z,21.63
2019-02-05T23:21:32.611Z,29.00
2019-02-05T23:24:04.378Z,27.20
2019-02-05T23:26:36.084Z,28.53
2019-02-05T23:29:07.527Z,27.17
2019-02-05T23:31:39.258Z,26.37
2019-02-05T23:34:11.093Z,23.57
2019-02-05T23:36:43.276Z,25.90
2019-02-05T23:39:14.764Z,20.83
2019-02-05T23:41:46.376Z,27.73
2019-02-05T23:44:17.835Z,27.30
2019-02-05T23:46:49.375Z,26.43
2019-02-05T23:49:21.116Z,28.37
2019-02-05T23:51:52.823Z,25.63
2019-02-05T23:54:24.529Z,25.17
2019-02-05T23:56:56.624Z,27.23
2019-02-05T23:59:28.474Z,22.43
